Nearby METAR Reports

 

EGTE - Exeter Airport, United Kingdom
Distance from station: S 19km
Updated: 22/09/2019 22:50
Nearby showers, Partly cloudy
Nearby showers, Partly cloudy
 Wind from SW
Wind: SW 9 km/h
Temperature: 14°C
Dew Point: 14°C
Humidity: 100%
Barometer: 1006 hPa
Summary: Nearby Showers
Clouds: Partly cloudy
Visibility: 10 km
Cloud details: Few Clouds 457 m
Partly cloudy 762 m
2019/09/22 21:50 EGTE 222150Z 22005KT 9999 VCSH FEW015 SCT025 14/14 Q1006
EGDY - Yeovilton (navy), United Kingdom
Distance from station: ENE 55km
Updated: 22/09/2019 22:50
Mostly cloudy
Mostly cloudy
 Wind from SW
Wind: SW 9 km/h
Temperature: 14°C
Dew Point: 13°C
Humidity: 94%
Barometer: 1006 hPa
Clouds: Mostly cloudy
Visibility: 10 km
Cloud details: Mostly cloudy 1524 m
2019/09/22 21:50 EGDY 222150Z AUTO 22005KT 9999 // BKN050/// 14/13 Q1006
 
EGFF - Cardiff-Wales Ar, United Kingdom
Distance from station: N 56km
Updated: 22/09/2019 22:50
Light rain, Showers, Mostly cloudy
Light rain, Showers, Mostly cloudy
 Wind from W
Wind: W 22 km/h
Temperature: 16°C
Dew Point: 14°C
Humidity: 88%
Barometer: 1005 hPa
Summary: Light rain, Showers
Clouds: Mostly cloudy
Visibility: 10 km
Cloud details: Mostly cloudy 335 m
2019/09/22 21:50 EGFF 222150Z 26012KT 9999 -SHRA BKN011CB 16/14 Q1005
EGDX - St Athan Raf, United Kingdom
Distance from station: N 58km
Updated: 01/04/2019 13:50
NOT Current
Clear
Clear
 Wind from E
Wind: E 15 km/h
Temperature: 11°C
Dew Point: 5°C
Humidity: 67%
Barometer: 1019 hPa
Clouds: Clear
Visibility: 10 km
2019/04/01 12:50 EGDX 011250Z AUTO 10008KT 9999 NCD 11/05 Q1019
 
EGGD - Bristol/Lulsgate, United Kingdom
Distance from station: NE 71km
Updated: 22/09/2019 22:50
Thunderstorm
Thunderstorm
 Wind from SSW
Wind: SSW 13 km/h
Temperature: 13°C
Dew Point: 12°C
Humidity: 94%
Barometer: 1005 hPa
Clouds: Thunderstorm
Visibility: 10 km
Cloud details: Few Clouds 518 m
Partly cloudy 671 m
Mostly cloudy 1006 m
2019/09/22 21:50 EGGD 222150Z AUTO 20007KT 9999 FEW017/// SCT022/// BKN033/// //////CB 13/12 Q1005